createdAt,value
2023-02-12T00:00:59.987Z,16.57
2023-02-12T00:05:54.474Z,18.37
2023-02-12T00:10:47.480Z,22.37
2023-02-12T00:15:40.511Z,18.27
2023-02-12T00:20:33.296Z,17.77
2023-02-12T00:25:27.439Z,18.30
2023-02-12T00:30:20.604Z,19.03
2023-02-12T00:35:13.866Z,19.63
2023-02-12T00:40:07.332Z,30.80
2023-02-12T00:45:01.638Z,38.93
2023-02-12T00:49:57.257Z,42.67
2023-02-12T00:54:50.365Z,41.10
2023-02-12T00:59:43.360Z,40.20
2023-02-12T01:04:37.708Z,38.80
2023-02-12T01:09:30.638Z,38.40
2023-02-12T01:14:23.732Z,35.80
2023-02-12T01:19:16.731Z,36.67
2023-02-12T01:24:11.554Z,39.07
2023-02-12T01:29:06.605Z,37.17
2023-02-12T01:34:00.506Z,41.47
2023-02-12T01:38:53.565Z,40.90
2023-02-12T01:43:47.611Z,39.00
2023-02-12T01:48:41.681Z,40.07
2023-02-12T01:53:36.010Z,38.80
2023-02-12T01:58:31.234Z,37.93
2023-02-12T02:03:25.237Z,33.63
2023-02-12T02:08:19.163Z,32.63
2023-02-12T02:13:29.572Z,30.87
2023-02-12T02:18:24.100Z,25.53
2023-02-12T02:23:30.991Z,29.00
2023-02-12T02:28:32.735Z,32.90
2023-02-12T02:33:33.645Z,32.57
2023-02-12T02:38:30.650Z,33.10
2023-02-12T02:43:24.913Z,32.73
2023-02-12T02:48:19.078Z,31.97
2023-02-12T02:53:15.339Z,31.43
2023-02-12T02:58:11.296Z,26.17
2023-02-12T03:03:08.712Z,22.27
2023-02-12T03:08:04.142Z,15.80
2023-02-12T03:13:00.589Z,13.10
2023-02-12T03:17:53.254Z,12.50
2023-02-12T03:22:48.169Z,12.60
2023-02-12T03:27:42.500Z,12.90
2023-02-12T03:32:41.568Z,13.30
2023-02-12T03:37:36.300Z,19.27
2023-02-12T03:42:33.891Z,25.80
2023-02-12T03:47:28.910Z,28.37
2023-02-12T03:52:22.981Z,31.33
2023-02-12T03:57:18.312Z,29.83
2023-02-12T04:02:11.214Z,30.17
2023-02-12T04:07:03.899Z,28.93
2023-02-12T04:12:04.813Z,30.40
2023-02-12T04:17:01.161Z,28.80
2023-02-12T04:22:02.811Z,29.63
2023-02-12T04:26:56.272Z,29.23
2023-02-12T04:31:52.082Z,27.90
2023-02-12T04:36:47.148Z,30.80
2023-02-12T04:41:40.403Z,28.60
2023-02-12T04:46:33.126Z,27.20
2023-02-12T04:51:27.069Z,29.00
2023-02-12T04:56:19.646Z,30.47
2023-02-12T05:01:12.250Z,27.83
2023-02-12T05:06:05.347Z,29.17
2023-02-12T05:10:59.230Z,28.90
2023-02-12T05:15:51.897Z,29.77
2023-02-12T05:20:44.467Z,30.30
2023-02-12T05:25:37.071Z,27.10
2023-02-12T05:30:30.961Z,30.03
2023-02-12T05:35:24.301Z,27.90
2023-02-12T05:40:17.110Z,29.60
2023-02-12T05:45:09.883Z,28.17
2023-02-12T05:50:03.750Z,29.50
2023-02-12T05:54:56.290Z,30.30
2023-02-12T05:59:48.850Z,30.83
2023-02-12T06:04:41.427Z,27.67
2023-02-12T06:09:35.931Z,27.73
2023-02-12T06:14:31.468Z,28.07
2023-02-12T06:19:24.761Z,25.60
2023-02-12T06:24:17.895Z,28.40
2023-02-12T06:29:13.164Z,28.00
2023-02-12T06:34:07.089Z,29.77
2023-02-12T06:39:01.330Z,28.90
2023-02-12T06:43:53.868Z,29.17
2023-02-12T06:48:47.771Z,30.43
2023-02-12T06:53:40.366Z,27.47
2023-02-12T06:58:33.016Z,29.80
2023-02-12T07:03:25.622Z,32.00
2023-02-12T07:08:19.549Z,33.57
2023-02-12T07:13:12.123Z,35.40
2023-02-12T07:18:04.782Z,34.17
2023-02-12T07:22:57.297Z,34.27
2023-02-12T07:27:51.244Z,29.30
2023-02-12T07:32:43.795Z,28.10
2023-02-12T07:37:36.400Z,26.33
2023-02-12T07:42:29.255Z,26.30
2023-02-12T07:47:23.534Z,22.87
2023-02-12T07:52:16.290Z,21.53
2023-02-12T07:57:08.930Z,25.67
2023-02-12T08:02:01.957Z,21.50
2023-02-12T08:06:56.742Z,24.37
2023-02-12T08:11:49.735Z,30.80
2023-02-12T08:16:43.470Z,39.40
2023-02-12T08:21:42.728Z,33.60
2023-02-12T08:26:38.031Z,29.97
2023-02-12T08:31:38.431Z,31.27
2023-02-12T08:36:42.380Z,29.23
2023-02-12T08:41:49.388Z,31.80
2023-02-12T08:46:47.319Z,28.47
2023-02-12T08:51:43.708Z,29.03
2023-02-12T08:56:36.671Z,28.03
2023-02-12T09:01:31.867Z,30.33
2023-02-12T09:06:25.671Z,27.23
2023-02-12T09:11:19.241Z,27.13
2023-02-12T09:16:12.390Z,27.50
2023-02-12T09:21:07.312Z,27.97
2023-02-12T09:26:00.238Z,28.13
2023-02-12T09:30:52.863Z,26.00
2023-02-12T09:35:45.488Z,26.60
2023-02-12T09:40:43.882Z,25.60
2023-02-12T09:45:37.612Z,22.63
2023-02-12T09:50:38.435Z,25.30
2023-02-12T09:55:32.011Z,25.20
2023-02-12T10:00:31.083Z,24.03
2023-02-12T10:05:26.423Z,28.90
2023-02-12T10:10:26.045Z,26.07
2023-02-12T10:15:28.030Z,21.63
2023-02-12T10:20:35.484Z,21.10
2023-02-12T10:25:31.428Z,18.03
2023-02-12T10:30:26.115Z,18.20
2023-02-12T10:35:20.105Z,18.20
2023-02-12T10:40:18.046Z,17.30
2023-02-12T10:45:16.609Z,15.97
2023-02-12T10:50:16.171Z,15.73
2023-02-12T10:55:24.706Z,15.83
2023-02-12T11:00:23.904Z,14.83
2023-02-12T11:05:24.012Z,14.60
2023-02-12T11:10:21.604Z,15.07
2023-02-12T11:15:16.623Z,13.90
2023-02-12T11:20:22.449Z,14.00
2023-02-12T11:25:16.724Z,12.00
2023-02-12T11:30:14.327Z,11.93
2023-02-12T11:35:07.757Z,11.00
2023-02-12T11:40:01.864Z,10.67
2023-02-12T11:44:56.295Z,9.70
2023-02-12T11:49:50.630Z,10.33
2023-02-12T11:54:47.221Z,11.17
2023-02-12T11:59:43.899Z,11.20
2023-02-12T12:04:36.884Z,10.73
2023-02-12T12:09:34.793Z,12.10
2023-02-12T12:14:29.728Z,8.73
2023-02-12T12:19:43.493Z,7.67
2023-02-12T12:24:39.865Z,8.77
2023-02-12T12:29:47.635Z,8.27
2023-02-12T12:34:41.700Z,9.10
2023-02-12T12:39:36.698Z,10.57
2023-02-12T12:44:34.224Z,10.20
2023-02-12T12:49:32.057Z,9.40
2023-02-12T12:54:34.600Z,8.67
2023-02-12T12:59:34.505Z,7.17
2023-02-12T13:04:45.868Z,7.93
2023-02-12T13:09:46.571Z,6.20
2023-02-12T13:14:43.006Z,5.50
2023-02-12T13:19:40.454Z,5.90
2023-02-12T13:24:39.878Z,5.97
2023-02-12T13:29:36.178Z,5.93
2023-02-12T13:34:30.620Z,5.83
2023-02-12T13:39:28.712Z,6.70
2023-02-12T13:44:28.070Z,6.30
2023-02-12T13:49:27.146Z,6.33
2023-02-12T13:54:30.817Z,7.00
2023-02-12T13:59:39.475Z,6.50
2023-02-12T14:04:34.748Z,5.50
2023-02-12T14:09:32.244Z,7.00
2023-02-12T14:14:27.205Z,7.33
2023-02-12T14:19:40.408Z,8.40
2023-02-12T14:24:52.878Z,8.80
2023-02-12T14:30:00.314Z,8.97
2023-02-12T14:34:54.301Z,10.20
2023-02-12T14:39:46.872Z,9.17
2023-02-12T14:44:40.057Z,10.40
2023-02-12T14:49:35.186Z,10.33
2023-02-12T14:54:32.126Z,10.17
2023-02-12T14:59:25.894Z,10.90
2023-02-12T15:04:22.536Z,10.10
2023-02-12T15:09:18.059Z,9.27
2023-02-12T15:14:16.347Z,10.40
2023-02-12T15:19:15.368Z,10.63
2023-02-12T15:24:08.981Z,12.63
2023-02-12T15:29:01.940Z,11.70
2023-02-12T15:33:56.661Z,12.57
2023-02-12T15:38:52.332Z,15.43
2023-02-12T15:43:45.053Z,13.40
2023-02-12T15:48:38.775Z,14.03
2023-02-12T15:53:33.540Z,15.00
2023-02-12T15:58:28.075Z,14.47
2023-02-12T16:03:22.187Z,13.60
2023-02-12T16:08:16.376Z,13.80
2023-02-12T16:13:12.471Z,15.70
2023-02-12T16:18:05.788Z,15.27
2023-02-12T16:22:59.286Z,14.80
2023-02-12T16:27:55.167Z,18.53
2023-02-12T16:32:49.240Z,15.90
2023-02-12T16:37:44.002Z,21.23
2023-02-12T16:42:36.713Z,23.37
2023-02-12T16:47:29.301Z,20.03
2023-02-12T16:52:29.325Z,20.23
2023-02-12T16:57:21.981Z,20.00
2023-02-12T17:02:15.547Z,25.43
2023-02-12T17:07:16.667Z,31.47
2023-02-12T17:12:10.788Z,16.20
2023-02-12T17:17:03.428Z,16.43
2023-02-12T17:21:56.243Z,14.47
2023-02-12T17:26:50.505Z,13.90
2023-02-12T17:31:44.792Z,17.40
2023-02-12T17:36:39.214Z,19.60
2023-02-12T17:41:33.020Z,20.07
2023-02-12T17:46:28.633Z,19.40
2023-02-12T17:51:23.577Z,17.20
2023-02-12T17:56:20.985Z,13.80
2023-02-12T18:01:19.358Z,11.83
2023-02-12T18:06:26.658Z,10.87
2023-02-12T18:11:24.377Z,10.07
2023-02-12T18:16:18.099Z,10.20
2023-02-12T18:21:13.904Z,10.03
2023-02-12T18:26:09.468Z,11.47
2023-02-12T18:31:04.722Z,11.43
2023-02-12T18:35:58.233Z,11.60
2023-02-12T18:40:50.805Z,11.30
2023-02-12T18:45:43.441Z,16.00
2023-02-12T18:50:37.635Z,52.80
2023-02-12T18:55:30.201Z,14.03
2023-02-12T19:00:23.027Z,14.00
2023-02-12T19:05:15.591Z,13.97
2023-02-12T19:10:10.210Z,16.87
2023-02-12T19:15:02.947Z,13.60
2023-02-12T19:19:55.591Z,14.77
2023-02-12T19:24:50.567Z,14.87
2023-02-12T19:29:44.608Z,23.83
2023-02-12T19:34:37.232Z,25.20
2023-02-12T19:39:30.037Z,17.80
2023-02-12T19:44:23.787Z,15.47
2023-02-12T19:49:18.636Z,17.33
2023-02-12T19:54:12.639Z,20.03
2023-02-12T19:59:06.338Z,22.50
2023-02-12T20:03:59.544Z,16.10
2023-02-12T20:08:53.562Z,17.00
2023-02-12T20:13:46.192Z,18.73
2023-02-12T20:18:39.007Z,18.73
2023-02-12T20:23:31.629Z,18.57
2023-02-12T20:28:25.588Z,17.63
2023-02-12T20:33:18.268Z,19.43
2023-02-12T20:38:10.917Z,19.30
2023-02-12T20:43:03.571Z,17.53
2023-02-12T20:47:57.655Z,18.30
2023-02-12T20:52:50.262Z,16.43
2023-02-12T20:57:42.882Z,17.83
2023-02-12T21:02:35.574Z,17.30
2023-02-12T21:07:29.535Z,15.27
2023-02-12T21:12:22.200Z,15.97
2023-02-12T21:17:14.815Z,14.57
2023-02-12T21:22:07.402Z,13.47
2023-02-12T21:27:01.463Z,13.30
2023-02-12T21:31:55.049Z,17.37
2023-02-12T21:36:48.681Z,20.67
2023-02-12T21:41:42.349Z,21.57
2023-02-12T21:46:36.892Z,22.53
2023-02-12T21:51:32.662Z,21.63
2023-02-12T21:56:26.950Z,20.53
2023-02-12T22:01:20.669Z,20.90
2023-02-12T22:06:15.445Z,20.37
2023-02-12T22:11:09.039Z,21.63
2023-02-12T22:16:08.186Z,21.70
2023-02-12T22:21:01.205Z,19.80
2023-02-12T22:25:55.216Z,21.50
2023-02-12T22:30:47.744Z,19.87
2023-02-12T22:35:40.376Z,18.40
2023-02-12T22:40:33.012Z,19.43
2023-02-12T22:45:26.915Z,18.93
2023-02-12T22:50:19.700Z,18.27
2023-02-12T22:55:13.087Z,17.83
2023-02-12T23:00:06.573Z,15.20
2023-02-12T23:05:00.535Z,24.70
2023-02-12T23:09:53.062Z,14.80
2023-02-12T23:14:45.645Z,14.87
2023-02-12T23:19:38.249Z,16.23
2023-02-12T23:24:32.216Z,16.00
2023-02-12T23:29:24.893Z,16.77
2023-02-12T23:34:17.684Z,14.90
2023-02-12T23:39:12.310Z,14.63
2023-02-12T23:44:06.529Z,13.63
2023-02-12T23:48:59.224Z,12.67
2023-02-12T23:53:51.837Z,13.33
2023-02-12T23:58:44.474Z,12.63
